Accueil
METAR-TAF:

METAR-TAF

Aéroports :

Sunlight Mountain, Colorado, États-Unis

latitude: 39-25-32N, longitude: 107-22-45W, altitude: 3232 m

Observation

Le bulletin a été fait il y a 29 minutes, à 16:47 UTC
Vent calme
Température -1°C
Humidité 31%
Pression 1031 hPa
Visibilité: 16.1 km
Ciel clair

METAR: K5SM 141647Z AUTO 00000KT 10SM CLR M01/M16 A3044 RMK AO2

Heure: 10:16 (17:16 UTC)


TAF: absent

Observations et prévisions météorologiques de plus de 4000 aéroports (messages METAR et TAF).

Les stations disponibles sont représentées par des disques jaunes et rouges sur la carte.

Passer la souris dessus pour voir le nom de la station.

Cliquer dessus pour voir les observations et prévisions météorologiques.

Pour changer de carte: cliquez sur les boutons verts avec une croix noire pour zoomer, sur le bouton vert avec un tiret pour effectuer un zoom arrière, ou sur les flèches vertes pour les cartes adjacentes.


METAR-TAF: